Terminal Aerodrome Forecast
Issued by NWS

Home | Current Version | Previous Version | Text Only | Print | Product List | Glossary On
Versions: 1 2 3 4 5 6 7 8 9 10 11 12 13 14 15 16 17 18 19 20 21 22 23 24 25 26 27 28 29 30
000
FTUS41 KBUF 262300
TAFJHW
TAF
KJHW 262320Z 2700/2724 23006KT 6SM BR OVC006
     FM270300 27005KT 5SM BR OVC012
     FM270600 25005KT 6SM BR OVC012
     FM270800 27004KT 3SM -SN BR OVC012
     FM271400 29006KT 2SM -SN BR OVC007
     FM271600 29007KT 4SM -SN OVC015
     FM272200 33009KT 3SM -SN OVC015
      AMD LTD TO CLD VIS AND WIND=

USA.gov is the U.S. government's official web portal to all federal, state and local government web resources and services.